sensor_id;sensor_type;location;lat;lon;timestamp;P1;durP1;ratioP1;P2;durP2;ratioP2
11039;SDS011;5573;49.592;8.662;2023-05-19T00:00:05;301.20;;;285.38;;
11039;SDS011;5573;49.592;8.662;2023-05-19T00:02:38;285.00;;;269.92;;
11039;SDS011;5573;49.592;8.662;2023-05-19T00:05:07;274.50;;;259.70;;
11039;SDS011;5573;49.592;8.662;2023-05-19T00:07:37;268.67;;;254.50;;
11039;SDS011;5573;49.592;8.662;2023-05-19T00:10:05;268.02;;;253.80;;
11039;SDS011;5573;49.592;8.662;2023-05-19T00:12:34;285.65;;;270.73;;
11039;SDS011;5573;49.592;8.662;2023-05-19T00:15:04;278.80;;;264.02;;
11039;SDS011;5573;49.592;8.662;2023-05-19T00:17:33;283.55;;;268.50;;
11039;SDS011;5573;49.592;8.662;2023-05-19T00:20:04;283.70;;;268.77;;
11039;SDS011;5573;49.592;8.662;2023-05-19T00:22:33;288.15;;;273.17;;
11039;SDS011;5573;49.592;8.662;2023-05-19T00:25:02;266.08;;;252.02;;
11039;SDS011;5573;49.592;8.662;2023-05-19T00:27:31;283.20;;;268.17;;
11039;SDS011;5573;49.592;8.662;2023-05-19T00:29:59;287.17;;;272.17;;
11039;SDS011;5573;49.592;8.662;2023-05-19T00:32:27;282.83;;;267.92;;
11039;SDS011;5573;49.592;8.662;2023-05-19T00:34:54;295.13;;;279.17;;
11039;SDS011;5573;49.592;8.662;2023-05-19T00:37:25;289.70;;;274.33;;
11039;SDS011;5573;49.592;8.662;2023-05-19T00:39:53;293.10;;;277.75;;
11039;SDS011;5573;49.592;8.662;2023-05-19T00:42:20;294.65;;;279.10;;
11039;SDS011;5573;49.592;8.662;2023-05-19T00:44:48;278.40;;;263.52;;
11039;SDS011;5573;49.592;8.662;2023-05-19T00:47:16;276.90;;;262.17;;
11039;SDS011;5573;49.592;8.662;2023-05-19T00:49:43;288.40;;;273.03;;
11039;SDS011;5573;49.592;8.662;2023-05-19T00:52:11;283.27;;;268.40;;
11039;SDS011;5573;49.592;8.662;2023-05-19T00:54:40;278.87;;;264.07;;
11039;SDS011;5573;49.592;8.662;2023-05-19T00:57:10;295.83;;;280.10;;
11039;SDS011;5573;49.592;8.662;2023-05-19T00:59:39;295.97;;;280.37;;
11039;SDS011;5573;49.592;8.662;2023-05-19T01:02:07;276.07;;;261.57;;
11039;SDS011;5573;49.592;8.662;2023-05-19T01:04:35;293.60;;;277.63;;
11039;SDS011;5573;49.592;8.662;2023-05-19T01:07:04;288.50;;;273.50;;
11039;SDS011;5573;49.592;8.662;2023-05-19T01:09:33;298.75;;;282.92;;
11039;SDS011;5573;49.592;8.662;2023-05-19T01:12:04;283.73;;;268.55;;
11039;SDS011;5573;49.592;8.662;2023-05-19T01:14:32;287.93;;;272.97;;
11039;SDS011;5573;49.592;8.662;2023-05-19T01:17:01;266.95;;;252.70;;
11039;SDS011;5573;49.592;8.662;2023-05-19T01:19:39;289.10;;;273.37;;
11039;SDS011;5573;49.592;8.662;2023-05-19T01:22:23;271.97;;;257.67;;
11039;SDS011;5573;49.592;8.662;2023-05-19T01:28:02;282.27;;;267.17;;
11039;SDS011;5573;49.592;8.662;2023-05-19T01:30:44;281.47;;;266.67;;
11039;SDS011;5573;49.592;8.662;2023-05-19T01:33:14;275.03;;;260.60;;
11039;SDS011;5573;49.592;8.662;2023-05-19T01:35:45;278.03;;;263.17;;
11039;SDS011;5573;49.592;8.662;2023-05-19T01:38:15;301.77;;;285.65;;
11039;SDS011;5573;49.592;8.662;2023-05-19T01:40:44;293.83;;;278.23;;
11039;SDS011;5573;49.592;8.662;2023-05-19T01:43:14;275.27;;;260.75;;
11039;SDS011;5573;49.592;8.662;2023-05-19T01:45:47;294.50;;;278.93;;
11039;SDS011;5573;49.592;8.662;2023-05-19T01:48:15;298.97;;;283.17;;
11039;SDS011;5573;49.592;8.662;2023-05-19T01:50:44;298.77;;;283.30;;
11039;SDS011;5573;49.592;8.662;2023-05-19T01:53:13;306.60;;;290.50;;
11039;SDS011;5573;49.592;8.662;2023-05-19T01:55:42;291.73;;;276.00;;
11039;SDS011;5573;49.592;8.662;2023-05-19T01:58:17;277.00;;;262.38;;
11039;SDS011;5573;49.592;8.662;2023-05-19T02:00:58;279.30;;;264.88;;
11039;SDS011;5573;49.592;8.662;2023-05-19T02:03:37;296.67;;;281.03;;
11039;SDS011;5573;49.592;8.662;2023-05-19T02:06:15;294.37;;;279.00;;
11039;SDS011;5573;49.592;8.662;2023-05-19T02:08:50;285.27;;;270.43;;
11039;SDS011;5573;49.592;8.662;2023-05-19T02:11:25;290.80;;;275.73;;
11039;SDS011;5573;49.592;8.662;2023-05-19T02:14:07;298.33;;;282.63;;
11039;SDS011;5573;49.592;8.662;2023-05-19T02:16:40;294.37;;;278.67;;
11039;SDS011;5573;49.592;8.662;2023-05-19T02:19:20;291.27;;;275.83;;
11039;SDS011;5573;49.592;8.662;2023-05-19T02:21:50;295.73;;;280.20;;
11039;SDS011;5573;49.592;8.662;2023-05-19T02:24:20;314.60;;;298.30;;
11039;SDS011;5573;49.592;8.662;2023-05-19T02:26:48;280.03;;;265.37;;
11039;SDS011;5573;49.592;8.662;2023-05-19T02:29:17;313.57;;;296.60;;
11039;SDS011;5573;49.592;8.662;2023-05-19T02:31:46;287.40;;;272.20;;
11039;SDS011;5573;49.592;8.662;2023-05-19T02:34:14;285.63;;;270.47;;
11039;SDS011;5573;49.592;8.662;2023-05-19T02:36:42;302.77;;;286.60;;
11039;SDS011;5573;49.592;8.662;2023-05-19T02:39:10;305.40;;;289.53;;
11039;SDS011;5573;49.592;8.662;2023-05-19T02:41:38;284.47;;;269.63;;
11039;SDS011;5573;49.592;8.662;2023-05-19T02:44:07;294.97;;;279.47;;
11039;SDS011;5573;49.592;8.662;2023-05-19T02:46:35;306.83;;;290.73;;
11039;SDS011;5573;49.592;8.662;2023-05-19T02:49:04;293.93;;;278.60;;
11039;SDS011;5573;49.592;8.662;2023-05-19T02:51:32;300.23;;;284.53;;
11039;SDS011;5573;49.592;8.662;2023-05-19T02:54:00;301.60;;;285.80;;
11039;SDS011;5573;49.592;8.662;2023-05-19T02:56:28;282.17;;;267.43;;
11039;SDS011;5573;49.592;8.662;2023-05-19T02:58:56;295.50;;;280.03;;
11039;SDS011;5573;49.592;8.662;2023-05-19T03:01:24;296.67;;;280.87;;
11039;SDS011;5573;49.592;8.662;2023-05-19T03:03:52;306.20;;;289.93;;
11039;SDS011;5573;49.592;8.662;2023-05-19T03:06:22;306.03;;;290.07;;
11039;SDS011;5573;49.592;8.662;2023-05-19T03:08:49;304.50;;;288.33;;
11039;SDS011;5573;49.592;8.662;2023-05-19T03:11:17;298.27;;;282.63;;
11039;SDS011;5573;49.592;8.662;2023-05-19T03:13:45;287.47;;;272.33;;
11039;SDS011;5573;49.592;8.662;2023-05-19T03:16:13;292.73;;;277.27;;
11039;SDS011;5573;49.592;8.662;2023-05-19T03:18:41;295.07;;;279.17;;
11039;SDS011;5573;49.592;8.662;2023-05-19T03:21:09;308.83;;;292.17;;
11039;SDS011;5573;49.592;8.662;2023-05-19T03:23:38;285.93;;;271.07;;
11039;SDS011;5573;49.592;8.662;2023-05-19T03:26:07;299.37;;;283.70;;
11039;SDS011;5573;49.592;8.662;2023-05-19T03:28:35;285.33;;;270.30;;
11039;SDS011;5573;49.592;8.662;2023-05-19T03:31:03;284.57;;;269.60;;
11039;SDS011;5573;49.592;8.662;2023-05-19T03:33:35;277.27;;;262.63;;
11039;SDS011;5573;49.592;8.662;2023-05-19T03:36:04;299.90;;;283.93;;
11039;SDS011;5573;49.592;8.662;2023-05-19T03:38:36;309.90;;;293.50;;
11039;SDS011;5573;49.592;8.662;2023-05-19T03:41:05;297.93;;;282.23;;
11039;SDS011;5573;49.592;8.662;2023-05-19T03:43:33;310.30;;;294.07;;
11039;SDS011;5573;49.592;8.662;2023-05-19T03:46:03;290.33;;;274.93;;
11039;SDS011;5573;49.592;8.662;2023-05-19T03:48:50;279.40;;;264.63;;
11039;SDS011;5573;49.592;8.662;2023-05-19T03:51:33;297.07;;;281.60;;
11039;SDS011;5573;49.592;8.662;2023-05-19T03:54:15;282.47;;;267.70;;
11039;SDS011;5573;49.592;8.662;2023-05-19T03:56:44;281.07;;;266.37;;
11039;SDS011;5573;49.592;8.662;2023-05-19T03:59:12;301.97;;;286.07;;
11039;SDS011;5573;49.592;8.662;2023-05-19T04:01:41;290.23;;;274.93;;
11039;SDS011;5573;49.592;8.662;2023-05-19T04:04:09;289.97;;;274.40;;
11039;SDS011;5573;49.592;8.662;2023-05-19T04:06:36;307.00;;;290.97;;
11039;SDS011;5573;49.592;8.662;2023-05-19T04:09:09;297.70;;;281.70;;
11039;SDS011;5573;49.592;8.662;2023-05-19T04:11:38;311.37;;;295.13;;
11039;SDS011;5573;49.592;8.662;2023-05-19T04:14:08;302.63;;;286.47;;
11039;SDS011;5573;49.592;8.662;2023-05-19T04:16:35;295.30;;;279.67;;
11039;SDS011;5573;49.592;8.662;2023-05-19T04:19:03;305.07;;;289.03;;
11039;SDS011;5573;49.592;8.662;2023-05-19T04:21:33;305.83;;;289.97;;
11039;SDS011;5573;49.592;8.662;2023-05-19T04:24:01;310.63;;;294.07;;
11039;SDS011;5573;49.592;8.662;2023-05-19T04:26:32;292.63;;;277.37;;
11039;SDS011;5573;49.592;8.662;2023-05-19T04:29:00;318.90;;;301.87;;
11039;SDS011;5573;49.592;8.662;2023-05-19T04:31:32;310.93;;;294.50;;
11039;SDS011;5573;49.592;8.662;2023-05-19T04:34:04;301.23;;;285.13;;
11039;SDS011;5573;49.592;8.662;2023-05-19T04:36:33;301.27;;;285.07;;
11039;SDS011;5573;49.592;8.662;2023-05-19T04:39:01;301.80;;;285.77;;
11039;SDS011;5573;49.592;8.662;2023-05-19T04:41:32;300.40;;;284.47;;
11039;SDS011;5573;49.592;8.662;2023-05-19T04:44:02;305.20;;;289.23;;
11039;SDS011;5573;49.592;8.662;2023-05-19T04:46:32;321.33;;;304.07;;
11039;SDS011;5573;49.592;8.662;2023-05-19T04:49:00;291.33;;;275.97;;
11039;SDS011;5573;49.592;8.662;2023-05-19T04:51:28;286.57;;;271.33;;
11039;SDS011;5573;49.592;8.662;2023-05-19T04:53:59;290.70;;;275.23;;
11039;SDS011;5573;49.592;8.662;2023-05-19T04:56:27;301.83;;;285.70;;
11039;SDS011;5573;49.592;8.662;2023-05-19T04:58:55;293.03;;;277.63;;
11039;SDS011;5573;49.592;8.662;2023-05-19T05:01:25;303.93;;;288.07;;
11039;SDS011;5573;49.592;8.662;2023-05-19T05:03:55;309.93;;;293.60;;
11039;SDS011;5573;49.592;8.662;2023-05-19T05:06:24;320.40;;;303.20;;
11039;SDS011;5573;49.592;8.662;2023-05-19T05:08:54;301.77;;;285.63;;
11039;SDS011;5573;49.592;8.662;2023-05-19T05:11:23;309.60;;;292.73;;
11039;SDS011;5573;49.592;8.662;2023-05-19T05:13:52;292.57;;;276.97;;
11039;SDS011;5573;49.592;8.662;2023-05-19T05:16:24;301.17;;;285.13;;
11039;SDS011;5573;49.592;8.662;2023-05-19T05:18:53;311.70;;;294.98;;
11039;SDS011;5573;49.592;8.662;2023-05-19T05:21:23;313.58;;;296.58;;
11039;SDS011;5573;49.592;8.662;2023-05-19T05:23:52;310.67;;;294.45;;
11039;SDS011;5573;49.592;8.662;2023-05-19T05:26:23;308.02;;;291.55;;
11039;SDS011;5573;49.592;8.662;2023-05-19T05:28:56;282.90;;;267.98;;
11039;SDS011;5573;49.592;8.662;2023-05-19T05:31:24;290.67;;;275.38;;
11039;SDS011;5573;49.592;8.662;2023-05-19T05:33:52;294.13;;;278.48;;
11039;SDS011;5573;49.592;8.662;2023-05-19T05:36:24;295.35;;;279.67;;
11039;SDS011;5573;49.592;8.662;2023-05-19T05:38:53;280.38;;;265.50;;
11039;SDS011;5573;49.592;8.662;2023-05-19T05:41:21;267.02;;;252.68;;
11039;SDS011;5573;49.592;8.662;2023-05-19T05:43:50;290.00;;;274.60;;
11039;SDS011;5573;49.592;8.662;2023-05-19T05:46:18;295.98;;;280.23;;
11039;SDS011;5573;49.592;8.662;2023-05-19T05:48:46;277.67;;;262.95;;
11039;SDS011;5573;49.592;8.662;2023-05-19T05:51:15;276.50;;;261.67;;
11039;SDS011;5573;49.592;8.662;2023-05-19T05:53:45;293.58;;;278.05;;
11039;SDS011;5573;49.592;8.662;2023-05-19T05:56:20;278.30;;;263.90;;
11039;SDS011;5573;49.592;8.662;2023-05-19T05:58:52;270.23;;;256.02;;
11039;SDS011;5573;49.592;8.662;2023-05-19T06:01:20;269.85;;;255.75;;
11039;SDS011;5573;49.592;8.662;2023-05-19T06:03:50;274.15;;;259.73;;
11039;SDS011;5573;49.592;8.662;2023-05-19T06:06:21;268.13;;;253.95;;
11039;SDS011;5573;49.592;8.662;2023-05-19T06:08:52;280.20;;;265.48;;
11039;SDS011;5573;49.592;8.662;2023-05-19T06:11:21;270.52;;;256.17;;
11039;SDS011;5573;49.592;8.662;2023-05-19T06:13:50;267.95;;;253.95;;
11039;SDS011;5573;49.592;8.662;2023-05-19T06:16:38;254.82;;;241.35;;
11039;SDS011;5573;49.592;8.662;2023-05-19T06:19:06;267.33;;;253.10;;
11039;SDS011;5573;49.592;8.662;2023-05-19T06:21:35;270.45;;;256.20;;
11039;SDS011;5573;49.592;8.662;2023-05-19T06:24:04;252.75;;;239.55;;
11039;SDS011;5573;49.592;8.662;2023-05-19T06:26:32;258.55;;;245.32;;
11039;SDS011;5573;49.592;8.662;2023-05-19T06:29:01;269.33;;;255.40;;
11039;SDS011;5573;49.592;8.662;2023-05-19T06:31:30;276.02;;;261.70;;
11039;SDS011;5573;49.592;8.662;2023-05-19T06:34:08;271.10;;;257.15;;
11039;SDS011;5573;49.592;8.662;2023-05-19T06:36:38;269.17;;;255.65;;
11039;SDS011;5573;49.592;8.662;2023-05-19T06:39:09;281.25;;;266.75;;
11039;SDS011;5573;49.592;8.662;2023-05-19T06:41:37;280.98;;;266.20;;
11039;SDS011;5573;49.592;8.662;2023-05-19T06:44:06;250.63;;;237.45;;
11039;SDS011;5573;49.592;8.662;2023-05-19T06:46:34;284.42;;;269.75;;
11039;SDS011;5573;49.592;8.662;2023-05-19T06:49:02;285.10;;;270.08;;
11039;SDS011;5573;49.592;8.662;2023-05-19T06:51:36;277.95;;;263.50;;
11039;SDS011;5573;49.592;8.662;2023-05-19T06:54:04;264.33;;;250.45;;
11039;SDS011;5573;49.592;8.662;2023-05-19T06:56:33;242.52;;;229.93;;
11039;SDS011;5573;49.592;8.662;2023-05-19T06:59:02;236.07;;;223.75;;
11039;SDS011;5573;49.592;8.662;2023-05-19T07:01:34;211.60;;;200.52;;
11039;SDS011;5573;49.592;8.662;2023-05-19T07:04:03;214.15;;;203.10;;
11039;SDS011;5573;49.592;8.662;2023-05-19T07:06:31;190.05;;;180.00;;
11039;SDS011;5573;49.592;8.662;2023-05-19T07:08:59;194.63;;;184.40;;
11039;SDS011;5573;49.592;8.662;2023-05-19T07:11:28;183.02;;;173.35;;
11039;SDS011;5573;49.592;8.662;2023-05-19T07:13:58;173.65;;;164.57;;
11039;SDS011;5573;49.592;8.662;2023-05-19T07:16:29;154.40;;;146.32;;
11039;SDS011;5573;49.592;8.662;2023-05-19T07:18:57;147.88;;;139.88;;
11039;SDS011;5573;49.592;8.662;2023-05-19T07:21:25;147.02;;;138.90;;
11039;SDS011;5573;49.592;8.662;2023-05-19T07:23:53;131.90;;;124.50;;
11039;SDS011;5573;49.592;8.662;2023-05-19T07:26:21;136.95;;;129.32;;
11039;SDS011;5573;49.592;8.662;2023-05-19T07:28:49;158.57;;;149.63;;
11039;SDS011;5573;49.592;8.662;2023-05-19T07:31:19;148.05;;;139.70;;
11039;SDS011;5573;49.592;8.662;2023-05-19T07:33:46;170.15;;;160.63;;
11039;SDS011;5573;49.592;8.662;2023-05-19T07:36:16;175.73;;;165.98;;
11039;SDS011;5573;49.592;8.662;2023-05-19T07:38:44;177.43;;;167.77;;
11039;SDS011;5573;49.592;8.662;2023-05-19T07:41:12;172.13;;;162.57;;
11039;SDS011;5573;49.592;8.662;2023-05-19T07:43:40;180.38;;;170.55;;
11039;SDS011;5573;49.592;8.662;2023-05-19T07:46:07;162.10;;;153.35;;
11039;SDS011;5573;49.592;8.662;2023-05-19T07:48:36;176.63;;;167.18;;
11039;SDS011;5573;49.592;8.662;2023-05-19T07:51:04;170.18;;;160.85;;
11039;SDS011;5573;49.592;8.662;2023-05-19T07:53:35;162.52;;;153.82;;
11039;SDS011;5573;49.592;8.662;2023-05-19T07:56:03;148.02;;;140.07;;
11039;SDS011;5573;49.592;8.662;2023-05-19T07:58:31;153.80;;;145.70;;
11039;SDS011;5573;49.592;8.662;2023-05-19T08:00:59;166.00;;;157.05;;
11039;SDS011;5573;49.592;8.662;2023-05-19T08:03:27;155.38;;;147.00;;
11039;SDS011;5573;49.592;8.662;2023-05-19T08:05:57;163.65;;;155.02;;
11039;SDS011;5573;49.592;8.662;2023-05-19T08:08:25;175.10;;;165.68;;
11039;SDS011;5573;49.592;8.662;2023-05-19T08:10:53;207.77;;;196.85;;
11039;SDS011;5573;49.592;8.662;2023-05-19T08:13:21;186.98;;;176.93;;
11039;SDS011;5573;49.592;8.662;2023-05-19T08:15:48;182.05;;;172.23;;
11039;SDS011;5573;49.592;8.662;2023-05-19T08:18:16;184.88;;;175.02;;
11039;SDS011;5573;49.592;8.662;2023-05-19T08:20:45;190.10;;;180.00;;
11039;SDS011;5573;49.592;8.662;2023-05-19T08:23:14;181.45;;;171.57;;
11039;SDS011;5573;49.592;8.662;2023-05-19T08:25:43;177.93;;;168.45;;
11039;SDS011;5573;49.592;8.662;2023-05-19T08:28:11;165.75;;;156.80;;
11039;SDS011;5573;49.592;8.662;2023-05-19T08:30:39;162.98;;;154.02;;
11039;SDS011;5573;49.592;8.662;2023-05-19T08:33:07;175.45;;;165.85;;
11039;SDS011;5573;49.592;8.662;2023-05-19T08:35:35;159.93;;;151.18;;
11039;SDS011;5573;49.592;8.662;2023-05-19T08:38:03;154.75;;;146.30;;
11039;SDS011;5573;49.592;8.662;2023-05-19T08:40:32;148.02;;;140.07;;
11039;SDS011;5573;49.592;8.662;2023-05-19T08:43:03;154.05;;;145.68;;
11039;SDS011;5573;49.592;8.662;2023-05-19T08:45:31;165.48;;;156.38;;
11039;SDS011;5573;49.592;8.662;2023-05-19T08:48:00;150.38;;;142.20;;
11039;SDS011;5573;49.592;8.662;2023-05-19T08:50:30;159.02;;;150.20;;
11039;SDS011;5573;49.592;8.662;2023-05-19T08:53:03;157.18;;;148.60;;
11039;SDS011;5573;49.592;8.662;2023-05-19T08:56:00;155.82;;;147.27;;
11039;SDS011;5573;49.592;8.662;2023-05-19T08:58:36;155.40;;;146.77;;
11039;SDS011;5573;49.592;8.662;2023-05-19T09:01:06;156.95;;;148.30;;
11039;SDS011;5573;49.592;8.662;2023-05-19T09:03:34;173.80;;;164.20;;
11039;SDS011;5573;49.592;8.662;2023-05-19T09:06:04;159.43;;;150.60;;
11039;SDS011;5573;49.592;8.662;2023-05-19T09:08:34;158.15;;;149.55;;
11039;SDS011;5573;49.592;8.662;2023-05-19T09:11:03;163.57;;;154.55;;
11039;SDS011;5573;49.592;8.662;2023-05-19T09:13:31;155.27;;;146.68;;
11039;SDS011;5573;49.592;8.662;2023-05-19T09:15:59;165.30;;;156.25;;
11039;SDS011;5573;49.592;8.662;2023-05-19T09:18:29;159.30;;;150.55;;
11039;SDS011;5573;49.592;8.662;2023-05-19T09:20:57;171.43;;;162.05;;
11039;SDS011;5573;49.592;8.662;2023-05-19T09:23:26;169.52;;;160.20;;
11039;SDS011;5573;49.592;8.662;2023-05-19T09:25:55;165.70;;;156.55;;
11039;SDS011;5573;49.592;8.662;2023-05-19T09:28:26;167.57;;;158.23;;
11039;SDS011;5573;49.592;8.662;2023-05-19T09:30:59;167.10;;;157.90;;
11039;SDS011;5573;49.592;8.662;2023-05-19T09:33:28;167.40;;;158.15;;
11039;SDS011;5573;49.592;8.662;2023-05-19T09:35:56;167.75;;;158.35;;
11039;SDS011;5573;49.592;8.662;2023-05-19T09:38:24;167.23;;;158.02;;
11039;SDS011;5573;49.592;8.662;2023-05-19T09:40:54;157.15;;;148.60;;
11039;SDS011;5573;49.592;8.662;2023-05-19T09:43:23;168.65;;;159.48;;
11039;SDS011;5573;49.592;8.662;2023-05-19T09:45:56;168.48;;;159.20;;
11039;SDS011;5573;49.592;8.662;2023-05-19T09:48:26;168.38;;;159.20;;
11039;SDS011;5573;49.592;8.662;2023-05-19T09:50:54;173.07;;;163.65;;
11039;SDS011;5573;49.592;8.662;2023-05-19T09:53:23;176.05;;;166.40;;
11039;SDS011;5573;49.592;8.662;2023-05-19T09:55:54;164.60;;;155.55;;
11039;SDS011;5573;49.592;8.662;2023-05-19T09:58:23;161.60;;;152.75;;
11039;SDS011;5573;49.592;8.662;2023-05-19T10:00:52;167.43;;;158.25;;
11039;SDS011;5573;49.592;8.662;2023-05-19T10:03:22;161.82;;;153.00;;
11039;SDS011;5573;49.592;8.662;2023-05-19T10:05:50;157.88;;;149.25;;
11039;SDS011;5573;49.592;8.662;2023-05-19T10:08:19;163.52;;;154.45;;
11039;SDS011;5573;49.592;8.662;2023-05-19T10:10:49;166.73;;;157.40;;
11039;SDS011;5573;49.592;8.662;2023-05-19T10:13:17;176.80;;;167.02;;
11039;SDS011;5573;49.592;8.662;2023-05-19T10:15:45;162.35;;;153.40;;
11039;SDS011;5573;49.592;8.662;2023-05-19T10:18:25;160.15;;;151.40;;
11039;SDS011;5573;49.592;8.662;2023-05-19T10:20:55;175.43;;;165.77;;
11039;SDS011;5573;49.592;8.662;2023-05-19T10:23:24;167.80;;;158.50;;
11039;SDS011;5573;49.592;8.662;2023-05-19T10:25:53;168.77;;;159.43;;
11039;SDS011;5573;49.592;8.662;2023-05-19T10:28:23;162.88;;;153.85;;
11039;SDS011;5573;49.592;8.662;2023-05-19T10:30:57;168.15;;;158.98;;
11039;SDS011;5573;49.592;8.662;2023-05-19T10:33:30;168.50;;;159.13;;
11039;SDS011;5573;49.592;8.662;2023-05-19T10:36:12;193.52;;;182.80;;
11039;SDS011;5573;49.592;8.662;2023-05-19T10:38:52;195.43;;;184.48;;
11039;SDS011;5573;49.592;8.662;2023-05-19T10:41:26;205.10;;;193.90;;
11039;SDS011;5573;49.592;8.662;2023-05-19T10:44:03;207.63;;;196.38;;
11039;SDS011;5573;49.592;8.662;2023-05-19T10:46:36;222.02;;;209.95;;
11039;SDS011;5573;49.592;8.662;2023-05-19T10:49:08;207.60;;;196.30;;
11039;SDS011;5573;49.592;8.662;2023-05-19T10:51:35;212.88;;;201.43;;
11039;SDS011;5573;49.592;8.662;2023-05-19T10:54:06;214.23;;;202.57;;
11039;SDS011;5573;49.592;8.662;2023-05-19T10:56:38;212.77;;;201.15;;
11039;SDS011;5573;49.592;8.662;2023-05-19T10:59:07;200.20;;;189.35;;
11039;SDS011;5573;49.592;8.662;2023-05-19T11:02:01;204.10;;;192.88;;
11039;SDS011;5573;49.592;8.662;2023-05-19T11:04:45;209.23;;;197.60;;
11039;SDS011;5573;49.592;8.662;2023-05-19T11:07:17;200.57;;;189.60;;
11039;SDS011;5573;49.592;8.662;2023-05-19T11:09:48;202.93;;;191.73;;
11039;SDS011;5573;49.592;8.662;2023-05-19T11:12:21;205.25;;;193.93;;
11039;SDS011;5573;49.592;8.662;2023-05-19T11:14:51;207.07;;;195.80;;
11039;SDS011;5573;49.592;8.662;2023-05-19T11:17:19;208.90;;;197.43;;
11039;SDS011;5573;49.592;8.662;2023-05-19T11:19:53;197.15;;;186.38;;
11039;SDS011;5573;49.592;8.662;2023-05-19T11:22:22;207.80;;;196.30;;
11039;SDS011;5573;49.592;8.662;2023-05-19T11:24:53;206.52;;;195.18;;
11039;SDS011;5573;49.592;8.662;2023-05-19T11:27:23;210.40;;;198.95;;
11039;SDS011;5573;49.592;8.662;2023-05-19T11:29:53;206.10;;;194.95;;
11039;SDS011;5573;49.592;8.662;2023-05-19T11:32:24;215.52;;;203.75;;
11039;SDS011;5573;49.592;8.662;2023-05-19T11:34:55;220.50;;;208.63;;
11039;SDS011;5573;49.592;8.662;2023-05-19T11:37:24;216.85;;;204.82;;
11039;SDS011;5573;49.592;8.662;2023-05-19T11:39:52;221.70;;;209.60;;
11039;SDS011;5573;49.592;8.662;2023-05-19T11:42:19;207.32;;;195.93;;
11039;SDS011;5573;49.592;8.662;2023-05-19T11:44:48;228.10;;;215.40;;
11039;SDS011;5573;49.592;8.662;2023-05-19T11:47:16;219.82;;;207.82;;
11039;SDS011;5573;49.592;8.662;2023-05-19T11:49:44;241.48;;;228.25;;
11039;SDS011;5573;49.592;8.662;2023-05-19T11:52:15;223.00;;;210.88;;
11039;SDS011;5573;49.592;8.662;2023-05-19T11:54:43;227.00;;;214.52;;
11039;SDS011;5573;49.592;8.662;2023-05-19T11:57:15;214.95;;;203.40;;
11039;SDS011;5573;49.592;8.662;2023-05-19T11:59:43;226.85;;;214.48;;
11039;SDS011;5573;49.592;8.662;2023-05-19T12:02:15;231.88;;;219.27;;
11039;SDS011;5573;49.592;8.662;2023-05-19T12:04:45;232.75;;;220.25;;
11039;SDS011;5573;49.592;8.662;2023-05-19T12:07:18;235.88;;;223.05;;
11039;SDS011;5573;49.592;8.662;2023-05-19T12:09:48;218.73;;;206.57;;
11039;SDS011;5573;49.592;8.662;2023-05-19T12:12:17;225.57;;;213.18;;
11039;SDS011;5573;49.592;8.662;2023-05-19T12:14:47;211.10;;;199.45;;
11039;SDS011;5573;49.592;8.662;2023-05-19T12:17:17;223.70;;;211.38;;
11039;SDS011;5573;49.592;8.662;2023-05-19T12:19:46;213.60;;;202.05;;
11039;SDS011;5573;49.592;8.662;2023-05-19T12:22:16;215.80;;;204.13;;
11039;SDS011;5573;49.592;8.662;2023-05-19T12:24:45;211.82;;;200.25;;
11039;SDS011;5573;49.592;8.662;2023-05-19T12:27:15;201.57;;;190.32;;
11039;SDS011;5573;49.592;8.662;2023-05-19T12:29:48;214.27;;;202.73;;
11039;SDS011;5573;49.592;8.662;2023-05-19T12:32:16;206.23;;;194.85;;
11039;SDS011;5573;49.592;8.662;2023-05-19T12:34:44;195.95;;;184.80;;
11039;SDS011;5573;49.592;8.662;2023-05-19T12:37:12;208.20;;;196.77;;
11039;SDS011;5573;49.592;8.662;2023-05-19T12:39:43;211.85;;;200.10;;
11039;SDS011;5573;49.592;8.662;2023-05-19T12:42:11;205.43;;;194.10;;
11039;SDS011;5573;49.592;8.662;2023-05-19T12:44:41;193.45;;;182.77;;
11039;SDS011;5573;49.592;8.662;2023-05-19T12:47:11;195.43;;;184.45;;
11039;SDS011;5573;49.592;8.662;2023-05-19T12:49:53;216.48;;;204.50;;
11039;SDS011;5573;49.592;8.662;2023-05-19T12:52:22;205.30;;;193.77;;
11039;SDS011;5573;49.592;8.662;2023-05-19T12:54:57;191.52;;;180.88;;
11039;SDS011;5573;49.592;8.662;2023-05-19T12:57:27;210.60;;;199.02;;
11039;SDS011;5573;49.592;8.662;2023-05-19T13:00:00;209.95;;;198.15;;
11039;SDS011;5573;49.592;8.662;2023-05-19T13:02:32;201.70;;;190.48;;
11039;SDS011;5573;49.592;8.662;2023-05-19T13:05:00;190.25;;;179.48;;
11039;SDS011;5573;49.592;8.662;2023-05-19T13:07:29;177.82;;;168.00;;
11039;SDS011;5573;49.592;8.662;2023-05-19T13:09:59;179.13;;;169.07;;
11039;SDS011;5573;49.592;8.662;2023-05-19T13:12:27;192.50;;;181.68;;
11039;SDS011;5573;49.592;8.662;2023-05-19T13:14:55;213.18;;;201.38;;
11039;SDS011;5573;49.592;8.662;2023-05-19T13:17:25;206.15;;;194.63;;
11039;SDS011;5573;49.592;8.662;2023-05-19T13:19:53;212.13;;;200.15;;
11039;SDS011;5573;49.592;8.662;2023-05-19T13:22:21;199.25;;;188.18;;
11039;SDS011;5573;49.592;8.662;2023-05-19T13:24:48;222.50;;;210.50;;
11039;SDS011;5573;49.592;8.662;2023-05-19T13:27:19;200.82;;;189.65;;
11039;SDS011;5573;49.592;8.662;2023-05-19T13:29:50;218.25;;;206.25;;
11039;SDS011;5573;49.592;8.662;2023-05-19T13:32:18;219.02;;;207.18;;
11039;SDS011;5573;49.592;8.662;2023-05-19T13:34:46;214.68;;;202.70;;
11039;SDS011;5573;49.592;8.662;2023-05-19T13:37:14;207.57;;;196.07;;
11039;SDS011;5573;49.592;8.662;2023-05-19T13:39:42;229.85;;;216.95;;
11039;SDS011;5573;49.592;8.662;2023-05-19T13:42:10;215.63;;;203.68;;
11039;SDS011;5573;49.592;8.662;2023-05-19T13:44:39;218.18;;;206.02;;
11039;SDS011;5573;49.592;8.662;2023-05-19T13:47:07;209.05;;;197.45;;
11039;SDS011;5573;49.592;8.662;2023-05-19T13:49:34;202.45;;;191.10;;
11039;SDS011;5573;49.592;8.662;2023-05-19T13:52:02;228.05;;;215.60;;
11039;SDS011;5573;49.592;8.662;2023-05-19T13:54:31;210.23;;;198.80;;
11039;SDS011;5573;49.592;8.662;2023-05-19T13:57:00;210.93;;;199.32;;
11039;SDS011;5573;49.592;8.662;2023-05-19T13:59:28;210.73;;;198.95;;
11039;SDS011;5573;49.592;8.662;2023-05-19T14:01:57;217.40;;;205.27;;
11039;SDS011;5573;49.592;8.662;2023-05-19T14:04:25;211.82;;;200.30;;
11039;SDS011;5573;49.592;8.662;2023-05-19T14:06:53;209.02;;;197.45;;
11039;SDS011;5573;49.592;8.662;2023-05-19T14:09:22;215.80;;;204.00;;
11039;SDS011;5573;49.592;8.662;2023-05-19T14:11:50;197.77;;;186.75;;
11039;SDS011;5573;49.592;8.662;2023-05-19T14:14:17;199.23;;;188.07;;
11039;SDS011;5573;49.592;8.662;2023-05-19T14:16:45;185.27;;;174.88;;
11039;SDS011;5573;49.592;8.662;2023-05-19T14:19:15;215.75;;;203.55;;
11039;SDS011;5573;49.592;8.662;2023-05-19T14:21:43;198.95;;;187.85;;
11039;SDS011;5573;49.592;8.662;2023-05-19T14:24:11;194.23;;;183.40;;
11039;SDS011;5573;49.592;8.662;2023-05-19T14:26:38;208.82;;;197.13;;